sensor_id;sensor_type;location;lat;lon;timestamp;temperature;humidity
26182;DHT22;13927;51.534;11.866;2023-10-19T00:00:55;8.00;99.90
26182;DHT22;13927;51.534;11.866;2023-10-19T00:03:25;8.10;99.90
26182;DHT22;13927;51.534;11.866;2023-10-19T00:05:52;8.10;99.90
26182;DHT22;13927;51.534;11.866;2023-10-19T00:08:21;8.10;99.90
26182;DHT22;13927;51.534;11.866;2023-10-19T00:10:51;8.10;99.90
26182;DHT22;13927;51.534;11.866;2023-10-19T00:13:38;8.20;99.90
26182;DHT22;13927;51.534;11.866;2023-10-19T00:16:08;8.20;99.90
26182;DHT22;13927;51.534;11.866;2023-10-19T00:18:54;8.20;99.90
26182;DHT22;13927;51.534;11.866;2023-10-19T00:21:25;8.20;99.90
26182;DHT22;13927;51.534;11.866;2023-10-19T00:23:54;8.20;99.90
26182;DHT22;13927;51.534;11.866;2023-10-19T00:26:23;8.20;99.90
26182;DHT22;13927;51.534;11.866;2023-10-19T00:28:56;8.20;99.90
26182;DHT22;13927;51.534;11.866;2023-10-19T00:31:23;8.30;99.90
26182;DHT22;13927;51.534;11.866;2023-10-19T00:33:53;8.30;99.90
26182;DHT22;13927;51.534;11.866;2023-10-19T00:36:23;8.30;99.90
26182;DHT22;13927;51.534;11.866;2023-10-19T00:38:51;8.40;99.90
26182;DHT22;13927;51.534;11.866;2023-10-19T00:41:24;8.40;99.90
26182;DHT22;13927;51.534;11.866;2023-10-19T00:43:58;8.40;99.90
26182;DHT22;13927;51.534;11.866;2023-10-19T00:46:38;8.40;99.90
26182;DHT22;13927;51.534;11.866;2023-10-19T00:49:10;8.50;99.90
26182;DHT22;13927;51.534;11.866;2023-10-19T00:51:52;8.50;99.90
26182;DHT22;13927;51.534;11.866;2023-10-19T00:57:19;8.50;99.90
26182;DHT22;13927;51.534;11.866;2023-10-19T00:59:59;8.50;99.90
26182;DHT22;13927;51.534;11.866;2023-10-19T01:02:48;8.50;99.90
26182;DHT22;13927;51.534;11.866;2023-10-19T01:05:17;8.50;99.90
26182;DHT22;13927;51.534;11.866;2023-10-19T01:07:47;8.50;99.90
26182;DHT22;13927;51.534;11.866;2023-10-19T01:10:22;8.50;99.90
26182;DHT22;13927;51.534;11.866;2023-10-19T01:12:49;8.50;99.90
26182;DHT22;13927;51.534;11.866;2023-10-19T01:15:20;8.50;99.90
26182;DHT22;13927;51.534;11.866;2023-10-19T01:17:54;8.60;99.90
26182;DHT22;13927;51.534;11.866;2023-10-19T01:20:25;8.60;99.90
26182;DHT22;13927;51.534;11.866;2023-10-19T01:23:07;8.50;99.90
26182;DHT22;13927;51.534;11.866;2023-10-19T01:31:20;8.50;99.90
26182;DHT22;13927;51.534;11.866;2023-10-19T01:33:54;8.50;99.90
26182;DHT22;13927;51.534;11.866;2023-10-19T01:36:27;8.40;99.90
26182;DHT22;13927;51.534;11.866;2023-10-19T01:38:57;8.40;99.90
26182;DHT22;13927;51.534;11.866;2023-10-19T01:41:27;8.30;99.90
26182;DHT22;13927;51.534;11.866;2023-10-19T01:43:56;8.30;99.90
26182;DHT22;13927;51.534;11.866;2023-10-19T01:46:30;8.30;99.90
26182;DHT22;13927;51.534;11.866;2023-10-19T01:49:00;8.30;99.90
26182;DHT22;13927;51.534;11.866;2023-10-19T01:51:32;8.30;99.90
26182;DHT22;13927;51.534;11.866;2023-10-19T01:54:04;8.20;99.90
26182;DHT22;13927;51.534;11.866;2023-10-19T01:56:33;8.20;99.90
26182;DHT22;13927;51.534;11.866;2023-10-19T01:59:02;8.20;99.90
26182;DHT22;13927;51.534;11.866;2023-10-19T02:01:34;8.20;99.90
26182;DHT22;13927;51.534;11.866;2023-10-19T02:04:06;8.20;99.90
26182;DHT22;13927;51.534;11.866;2023-10-19T02:06:34;8.20;99.90
26182;DHT22;13927;51.534;11.866;2023-10-19T02:09:08;8.10;99.90
26182;DHT22;13927;51.534;11.866;2023-10-19T02:11:44;8.20;99.90
26182;DHT22;13927;51.534;11.866;2023-10-19T02:14:12;8.10;99.90
26182;DHT22;13927;51.534;11.866;2023-10-19T02:16:43;8.10;99.90
26182;DHT22;13927;51.534;11.866;2023-10-19T02:19:20;8.10;99.90
26182;DHT22;13927;51.534;11.866;2023-10-19T02:21:51;8.10;99.90
26182;DHT22;13927;51.534;11.866;2023-10-19T02:24:19;8.10;99.90
26182;DHT22;13927;51.534;11.866;2023-10-19T02:26:49;8.10;99.90
26182;DHT22;13927;51.534;11.866;2023-10-19T02:29:17;8.20;99.90
26182;DHT22;13927;51.534;11.866;2023-10-19T02:31:44;8.20;99.90
26182;DHT22;13927;51.534;11.866;2023-10-19T02:34:12;8.10;99.90
26182;DHT22;13927;51.534;11.866;2023-10-19T02:36:41;8.20;99.90
26182;DHT22;13927;51.534;11.866;2023-10-19T02:39:10;8.20;99.90
26182;DHT22;13927;51.534;11.866;2023-10-19T02:41:47;8.20;99.90
26182;DHT22;13927;51.534;11.866;2023-10-19T02:44:15;8.20;99.90
26182;DHT22;13927;51.534;11.866;2023-10-19T02:46:44;8.20;99.90
26182;DHT22;13927;51.534;11.866;2023-10-19T02:49:12;8.30;99.90
26182;DHT22;13927;51.534;11.866;2023-10-19T02:51:42;8.20;99.90
26182;DHT22;13927;51.534;11.866;2023-10-19T02:54:15;8.30;99.90
26182;DHT22;13927;51.534;11.866;2023-10-19T02:56:50;8.30;99.90
26182;DHT22;13927;51.534;11.866;2023-10-19T02:59:23;8.30;99.90
26182;DHT22;13927;51.534;11.866;2023-10-19T03:01:52;8.20;99.90
26182;DHT22;13927;51.534;11.866;2023-10-19T03:04:40;8.20;99.90
26182;DHT22;13927;51.534;11.866;2023-10-19T03:07:07;8.30;99.90
26182;DHT22;13927;51.534;11.866;2023-10-19T03:09:34;8.30;99.90
26182;DHT22;13927;51.534;11.866;2023-10-19T03:12:03;8.20;99.90
26182;DHT22;13927;51.534;11.866;2023-10-19T03:14:35;8.20;99.90
26182;DHT22;13927;51.534;11.866;2023-10-19T03:17:03;8.20;99.90
26182;DHT22;13927;51.534;11.866;2023-10-19T03:19:29;8.20;99.90
26182;DHT22;13927;51.534;11.866;2023-10-19T03:21:56;8.20;99.90
26182;DHT22;13927;51.534;11.866;2023-10-19T03:24:25;8.20;99.90
26182;DHT22;13927;51.534;11.866;2023-10-19T03:27:09;8.20;99.90
26182;DHT22;13927;51.534;11.866;2023-10-19T03:29:51;8.10;99.90
26182;DHT22;13927;51.534;11.866;2023-10-19T03:32:21;8.10;99.90
26182;DHT22;13927;51.534;11.866;2023-10-19T03:34:52;8.10;99.90
26182;DHT22;13927;51.534;11.866;2023-10-19T03:37:24;8.10;99.90
26182;DHT22;13927;51.534;11.866;2023-10-19T03:39:54;8.10;99.90
26182;DHT22;13927;51.534;11.866;2023-10-19T03:42:24;8.10;99.90
26182;DHT22;13927;51.534;11.866;2023-10-19T03:45:12;8.10;99.90
26182;DHT22;13927;51.534;11.866;2023-10-19T03:47:39;8.10;99.90
26182;DHT22;13927;51.534;11.866;2023-10-19T03:50:09;8.10;99.90
26182;DHT22;13927;51.534;11.866;2023-10-19T03:52:40;8.10;99.90
26182;DHT22;13927;51.534;11.866;2023-10-19T03:55:07;8.10;99.90
26182;DHT22;13927;51.534;11.866;2023-10-19T03:57:38;8.10;99.90
26182;DHT22;13927;51.534;11.866;2023-10-19T04:00:12;8.00;99.90
26182;DHT22;13927;51.534;11.866;2023-10-19T04:02:42;8.00;99.90
26182;DHT22;13927;51.534;11.866;2023-10-19T04:05:08;8.00;99.90
26182;DHT22;13927;51.534;11.866;2023-10-19T04:07:40;8.00;99.90
26182;DHT22;13927;51.534;11.866;2023-10-19T04:10:09;8.00;99.90
26182;DHT22;13927;51.534;11.866;2023-10-19T04:12:55;7.90;99.90
26182;DHT22;13927;51.534;11.866;2023-10-19T04:15:22;7.90;99.90
26182;DHT22;13927;51.534;11.866;2023-10-19T04:17:51;7.90;99.90
26182;DHT22;13927;51.534;11.866;2023-10-19T04:20:19;7.90;99.90
26182;DHT22;13927;51.534;11.866;2023-10-19T04:22:46;7.90;99.90
26182;DHT22;13927;51.534;11.866;2023-10-19T04:25:14;7.80;99.90
26182;DHT22;13927;51.534;11.866;2023-10-19T04:27:42;7.80;99.90
26182;DHT22;13927;51.534;11.866;2023-10-19T04:30:09;7.80;99.90
26182;DHT22;13927;51.534;11.866;2023-10-19T04:32:44;7.90;99.90
26182;DHT22;13927;51.534;11.866;2023-10-19T04:35:12;7.90;99.90
26182;DHT22;13927;51.534;11.866;2023-10-19T04:37:52;7.80;99.90
26182;DHT22;13927;51.534;11.866;2023-10-19T04:40:20;7.90;99.90
26182;DHT22;13927;51.534;11.866;2023-10-19T04:42:50;7.90;99.90
26182;DHT22;13927;51.534;11.866;2023-10-19T04:45:17;7.90;99.90
26182;DHT22;13927;51.534;11.866;2023-10-19T04:47:43;7.90;99.90
26182;DHT22;13927;51.534;11.866;2023-10-19T04:50:10;7.90;99.90
26182;DHT22;13927;51.534;11.866;2023-10-19T04:52:37;7.90;99.90
26182;DHT22;13927;51.534;11.866;2023-10-19T04:55:04;8.00;99.90
26182;DHT22;13927;51.534;11.866;2023-10-19T04:57:31;8.00;99.90
26182;DHT22;13927;51.534;11.866;2023-10-19T04:59:57;8.00;99.90
26182;DHT22;13927;51.534;11.866;2023-10-19T05:02:24;8.00;99.90
26182;DHT22;13927;51.534;11.866;2023-10-19T05:04:50;8.00;99.90
26182;DHT22;13927;51.534;11.866;2023-10-19T05:07:16;8.00;99.90
26182;DHT22;13927;51.534;11.866;2023-10-19T05:09:43;8.10;99.90
26182;DHT22;13927;51.534;11.866;2023-10-19T05:12:11;8.00;99.90
26182;DHT22;13927;51.534;11.866;2023-10-19T05:14:41;8.10;99.90
26182;DHT22;13927;51.534;11.866;2023-10-19T05:17:08;8.10;99.90
26182;DHT22;13927;51.534;11.866;2023-10-19T05:19:39;8.10;99.90
26182;DHT22;13927;51.534;11.866;2023-10-19T05:22:08;8.10;99.90
26182;DHT22;13927;51.534;11.866;2023-10-19T05:24:35;8.20;99.90
26182;DHT22;13927;51.534;11.866;2023-10-19T05:27:01;8.20;99.90
26182;DHT22;13927;51.534;11.866;2023-10-19T05:29:30;8.20;99.90
26182;DHT22;13927;51.534;11.866;2023-10-19T05:31:58;8.20;99.90
26182;DHT22;13927;51.534;11.866;2023-10-19T05:34:24;8.20;99.90
26182;DHT22;13927;51.534;11.866;2023-10-19T05:36:52;8.20;99.90
26182;DHT22;13927;51.534;11.866;2023-10-19T05:39:19;8.30;99.90
26182;DHT22;13927;51.534;11.866;2023-10-19T05:41:46;8.30;99.90
26182;DHT22;13927;51.534;11.866;2023-10-19T05:44:12;8.30;99.90
26182;DHT22;13927;51.534;11.866;2023-10-19T05:46:38;8.30;99.90
26182;DHT22;13927;51.534;11.866;2023-10-19T05:49:05;8.30;99.90
26182;DHT22;13927;51.534;11.866;2023-10-19T05:51:32;8.30;99.90
26182;DHT22;13927;51.534;11.866;2023-10-19T05:53:58;8.40;99.90
26182;DHT22;13927;51.534;11.866;2023-10-19T05:56:31;8.40;99.90
26182;DHT22;13927;51.534;11.866;2023-10-19T05:58:57;8.40;99.90
26182;DHT22;13927;51.534;11.866;2023-10-19T06:01:24;8.50;99.90
26182;DHT22;13927;51.534;11.866;2023-10-19T06:03:50;8.50;99.90
26182;DHT22;13927;51.534;11.866;2023-10-19T06:06:16;8.50;99.90
26182;DHT22;13927;51.534;11.866;2023-10-19T06:08:42;8.50;99.90
26182;DHT22;13927;51.534;11.866;2023-10-19T06:11:08;8.60;99.90
26182;DHT22;13927;51.534;11.866;2023-10-19T06:13:33;8.50;99.90
26182;DHT22;13927;51.534;11.866;2023-10-19T06:15:59;8.60;99.90
26182;DHT22;13927;51.534;11.866;2023-10-19T06:18:25;8.60;99.90
26182;DHT22;13927;51.534;11.866;2023-10-19T06:20:51;8.60;99.90
26182;DHT22;13927;51.534;11.866;2023-10-19T06:23:17;8.60;99.90
26182;DHT22;13927;51.534;11.866;2023-10-19T06:25:44;8.50;99.90
26182;DHT22;13927;51.534;11.866;2023-10-19T06:28:10;8.60;99.90
26182;DHT22;13927;51.534;11.866;2023-10-19T06:30:39;8.60;99.90
26182;DHT22;13927;51.534;11.866;2023-10-19T06:33:06;8.60;99.90
26182;DHT22;13927;51.534;11.866;2023-10-19T06:35:33;8.70;99.90
26182;DHT22;13927;51.534;11.866;2023-10-19T06:37:59;8.70;99.90
26182;DHT22;13927;51.534;11.866;2023-10-19T06:40:26;8.70;99.90
26182;DHT22;13927;51.534;11.866;2023-10-19T06:42:55;8.70;99.90
26182;DHT22;13927;51.534;11.866;2023-10-19T06:45:25;8.70;99.90
26182;DHT22;13927;51.534;11.866;2023-10-19T06:47:51;8.70;99.90
26182;DHT22;13927;51.534;11.866;2023-10-19T06:50:19;8.80;99.90
26182;DHT22;13927;51.534;11.866;2023-10-19T06:52:46;8.80;99.90
26182;DHT22;13927;51.534;11.866;2023-10-19T06:55:13;8.80;99.90
26182;DHT22;13927;51.534;11.866;2023-10-19T06:57:43;8.80;99.90
26182;DHT22;13927;51.534;11.866;2023-10-19T07:00:11;8.80;99.90
26182;DHT22;13927;51.534;11.866;2023-10-19T07:02:40;8.80;99.90
26182;DHT22;13927;51.534;11.866;2023-10-19T07:05:08;8.80;99.90
26182;DHT22;13927;51.534;11.866;2023-10-19T07:07:41;8.80;99.90
26182;DHT22;13927;51.534;11.866;2023-10-19T07:10:08;8.80;99.90
26182;DHT22;13927;51.534;11.866;2023-10-19T07:12:36;8.90;99.90
26182;DHT22;13927;51.534;11.866;2023-10-19T07:15:04;8.90;99.90
26182;DHT22;13927;51.534;11.866;2023-10-19T07:17:37;8.90;99.90
26182;DHT22;13927;51.534;11.866;2023-10-19T07:20:05;8.90;99.90
26182;DHT22;13927;51.534;11.866;2023-10-19T07:22:35;8.90;99.90
26182;DHT22;13927;51.534;11.866;2023-10-19T07:25:05;8.90;99.90
26182;DHT22;13927;51.534;11.866;2023-10-19T07:27:32;8.90;99.90
26182;DHT22;13927;51.534;11.866;2023-10-19T07:29:59;9.00;99.90
26182;DHT22;13927;51.534;11.866;2023-10-19T07:32:26;9.00;99.90
26182;DHT22;13927;51.534;11.866;2023-10-19T07:34:53;9.00;99.90
26182;DHT22;13927;51.534;11.866;2023-10-19T07:37:20;9.10;99.90
26182;DHT22;13927;51.534;11.866;2023-10-19T07:39:47;9.10;99.90
26182;DHT22;13927;51.534;11.866;2023-10-19T07:42:14;9.10;99.90
26182;DHT22;13927;51.534;11.866;2023-10-19T07:44:40;9.20;99.90
26182;DHT22;13927;51.534;11.866;2023-10-19T07:47:06;9.20;99.90
26182;DHT22;13927;51.534;11.866;2023-10-19T07:49:38;9.20;99.90
26182;DHT22;13927;51.534;11.866;2023-10-19T07:52:05;9.20;99.90
26182;DHT22;13927;51.534;11.866;2023-10-19T07:54:36;9.20;99.90
26182;DHT22;13927;51.534;11.866;2023-10-19T07:57:03;9.30;99.90
26182;DHT22;13927;51.534;11.866;2023-10-19T07:59:33;9.30;99.90
26182;DHT22;13927;51.534;11.866;2023-10-19T08:01:59;9.30;99.90
26182;DHT22;13927;51.534;11.866;2023-10-19T08:04:29;9.40;99.90
26182;DHT22;13927;51.534;11.866;2023-10-19T08:06:55;9.40;99.90
26182;DHT22;13927;51.534;11.866;2023-10-19T08:09:22;9.50;99.90
26182;DHT22;13927;51.534;11.866;2023-10-19T08:11:51;9.50;99.90
26182;DHT22;13927;51.534;11.866;2023-10-19T08:14:27;9.50;99.90
26182;DHT22;13927;51.534;11.866;2023-10-19T08:16:53;9.60;99.90
26182;DHT22;13927;51.534;11.866;2023-10-19T08:19:19;9.70;99.90
26182;DHT22;13927;51.534;11.866;2023-10-19T08:21:45;9.70;99.90
26182;DHT22;13927;51.534;11.866;2023-10-19T08:24:12;9.70;99.90
26182;DHT22;13927;51.534;11.866;2023-10-19T08:26:43;9.70;99.90
26182;DHT22;13927;51.534;11.866;2023-10-19T08:29:11;9.80;99.90
26182;DHT22;13927;51.534;11.866;2023-10-19T08:31:43;9.90;99.90
26182;DHT22;13927;51.534;11.866;2023-10-19T08:34:12;9.90;99.90
26182;DHT22;13927;51.534;11.866;2023-10-19T08:36:39;10.00;99.90
26182;DHT22;13927;51.534;11.866;2023-10-19T08:39:06;10.00;99.90
26182;DHT22;13927;51.534;11.866;2023-10-19T08:41:34;10.10;99.90
26182;DHT22;13927;51.534;11.866;2023-10-19T08:44:06;10.10;99.90
26182;DHT22;13927;51.534;11.866;2023-10-19T08:46:40;10.20;99.90
26182;DHT22;13927;51.534;11.866;2023-10-19T08:49:12;10.30;99.90
26182;DHT22;13927;51.534;11.866;2023-10-19T08:51:40;10.30;99.90
26182;DHT22;13927;51.534;11.866;2023-10-19T08:54:11;10.40;99.90
26182;DHT22;13927;51.534;11.866;2023-10-19T08:56:38;10.40;99.90
26182;DHT22;13927;51.534;11.866;2023-10-19T08:59:04;10.50;99.90
26182;DHT22;13927;51.534;11.866;2023-10-19T09:01:31;10.60;99.90
26182;DHT22;13927;51.534;11.866;2023-10-19T09:03:58;10.70;99.90
26182;DHT22;13927;51.534;11.866;2023-10-19T09:06:25;10.70;99.90
26182;DHT22;13927;51.534;11.866;2023-10-19T09:08:51;10.80;99.90
26182;DHT22;13927;51.534;11.866;2023-10-19T09:11:17;10.90;99.90
26182;DHT22;13927;51.534;11.866;2023-10-19T09:13:50;10.90;99.90
26182;DHT22;13927;51.534;11.866;2023-10-19T09:16:21;11.00;99.90
26182;DHT22;13927;51.534;11.866;2023-10-19T09:18:48;11.10;99.90
26182;DHT22;13927;51.534;11.866;2023-10-19T09:21:20;11.20;99.90
26182;DHT22;13927;51.534;11.866;2023-10-19T09:23:55;11.30;99.90
26182;DHT22;13927;51.534;11.866;2023-10-19T09:26:22;11.30;99.90
26182;DHT22;13927;51.534;11.866;2023-10-19T09:28:50;11.40;99.90
26182;DHT22;13927;51.534;11.866;2023-10-19T09:31:18;11.50;99.90
26182;DHT22;13927;51.534;11.866;2023-10-19T09:33:46;11.60;99.90
26182;DHT22;13927;51.534;11.866;2023-10-19T09:36:14;11.70;99.90
26182;DHT22;13927;51.534;11.866;2023-10-19T09:38:44;11.70;99.90
26182;DHT22;13927;51.534;11.866;2023-10-19T09:41:17;11.90;99.90
26182;DHT22;13927;51.534;11.866;2023-10-19T09:43:45;12.00;99.90
26182;DHT22;13927;51.534;11.866;2023-10-19T09:46:20;12.10;99.90
26182;DHT22;13927;51.534;11.866;2023-10-19T09:48:48;12.20;99.90
26182;DHT22;13927;51.534;11.866;2023-10-19T09:51:16;12.20;99.90
26182;DHT22;13927;51.534;11.866;2023-10-19T09:55:07;12.30;99.90
26182;DHT22;13927;51.534;11.866;2023-10-19T09:57:17;12.40;99.90
26182;DHT22;13927;51.534;11.866;2023-10-19T09:59:49;12.50;99.90
26182;DHT22;13927;51.534;11.866;2023-10-19T10:02:17;12.50;99.90
26182;DHT22;13927;51.534;11.866;2023-10-19T10:04:47;12.60;99.90
26182;DHT22;13927;51.534;11.866;2023-10-19T10:07:14;12.60;99.90
26182;DHT22;13927;51.534;11.866;2023-10-19T10:09:43;12.60;99.90
26182;DHT22;13927;51.534;11.866;2023-10-19T10:12:20;12.60;99.90
26182;DHT22;13927;51.534;11.866;2023-10-19T10:15:01;12.70;99.90
26182;DHT22;13927;51.534;11.866;2023-10-19T10:17:38;12.80;99.90
26182;DHT22;13927;51.534;11.866;2023-10-19T10:22:39;12.80;99.90
26182;DHT22;13927;51.534;11.866;2023-10-19T10:25:07;12.80;99.90
26182;DHT22;13927;51.534;11.866;2023-10-19T10:27:51;12.90;99.90
26182;DHT22;13927;51.534;11.866;2023-10-19T10:30:17;12.90;99.90
26182;DHT22;13927;51.534;11.866;2023-10-19T10:32:47;12.90;99.90
26182;DHT22;13927;51.534;11.866;2023-10-19T10:38:06;13.10;99.90
26182;DHT22;13927;51.534;11.866;2023-10-19T10:40:47;13.20;99.90
26182;DHT22;13927;51.534;11.866;2023-10-19T10:43:16;13.40;99.90
26182;DHT22;13927;51.534;11.866;2023-10-19T10:45:43;13.60;99.90
26182;DHT22;13927;51.534;11.866;2023-10-19T10:48:14;13.70;99.90
26182;DHT22;13927;51.534;11.866;2023-10-19T10:50:41;13.90;99.90
26182;DHT22;13927;51.534;11.866;2023-10-19T10:53:08;14.00;99.90
26182;DHT22;13927;51.534;11.866;2023-10-19T10:55:37;14.10;99.90
26182;DHT22;13927;51.534;11.866;2023-10-19T10:58:07;14.20;99.90
26182;DHT22;13927;51.534;11.866;2023-10-19T11:00:34;14.20;99.90
26182;DHT22;13927;51.534;11.866;2023-10-19T11:03:07;14.40;99.90
26182;DHT22;13927;51.534;11.866;2023-10-19T11:05:36;14.40;99.90
26182;DHT22;13927;51.534;11.866;2023-10-19T11:08:11;14.50;99.90
26182;DHT22;13927;51.534;11.866;2023-10-19T11:10:44;14.50;99.90
26182;DHT22;13927;51.534;11.866;2023-10-19T11:13:18;14.40;99.90
26182;DHT22;13927;51.534;11.866;2023-10-19T11:15:50;14.50;99.90
26182;DHT22;13927;51.534;11.866;2023-10-19T11:18:34;14.50;99.90
26182;DHT22;13927;51.534;11.866;2023-10-19T11:21:03;14.50;99.90
26182;DHT22;13927;51.534;11.866;2023-10-19T11:23:46;14.60;99.90
26182;DHT22;13927;51.534;11.866;2023-10-19T11:26:20;14.70;99.90
26182;DHT22;13927;51.534;11.866;2023-10-19T11:28:59;14.80;99.90
26182;DHT22;13927;51.534;11.866;2023-10-19T11:31:27;14.90;99.90
26182;DHT22;13927;51.534;11.866;2023-10-19T11:34:02;14.90;99.90
26182;DHT22;13927;51.534;11.866;2023-10-19T11:36:29;15.00;99.90
26182;DHT22;13927;51.534;11.866;2023-10-19T11:38:55;15.00;99.90
26182;DHT22;13927;51.534;11.866;2023-10-19T11:41:21;15.10;99.90
26182;DHT22;13927;51.534;11.866;2023-10-19T11:43:49;15.10;99.90
26182;DHT22;13927;51.534;11.866;2023-10-19T11:46:16;15.10;99.90
26182;DHT22;13927;51.534;11.866;2023-10-19T11:48:50;15.10;99.90
26182;DHT22;13927;51.534;11.866;2023-10-19T11:51:16;15.10;99.90
26182;DHT22;13927;51.534;11.866;2023-10-19T11:53:43;15.10;99.90
26182;DHT22;13927;51.534;11.866;2023-10-19T11:56:12;15.10;99.90
26182;DHT22;13927;51.534;11.866;2023-10-19T11:58:39;15.20;99.90
26182;DHT22;13927;51.534;11.866;2023-10-19T12:01:08;15.30;99.90
26182;DHT22;13927;51.534;11.866;2023-10-19T12:03:41;15.40;99.90
26182;DHT22;13927;51.534;11.866;2023-10-19T12:06:09;15.40;99.90
26182;DHT22;13927;51.534;11.866;2023-10-19T12:08:37;15.50;99.90
26182;DHT22;13927;51.534;11.866;2023-10-19T12:11:05;15.60;99.90
26182;DHT22;13927;51.534;11.866;2023-10-19T12:13:44;15.70;99.90
26182;DHT22;13927;51.534;11.866;2023-10-19T12:16:13;15.90;99.90
26182;DHT22;13927;51.534;11.866;2023-10-19T12:18:43;16.10;99.90
26182;DHT22;13927;51.534;11.866;2023-10-19T12:21:10;16.20;99.90
26182;DHT22;13927;51.534;11.866;2023-10-19T12:23:41;16.40;99.90
26182;DHT22;13927;51.534;11.866;2023-10-19T12:26:16;16.60;99.90
26182;DHT22;13927;51.534;11.866;2023-10-19T12:28:43;16.70;99.90
26182;DHT22;13927;51.534;11.866;2023-10-19T12:31:12;16.60;99.90
26182;DHT22;13927;51.534;11.866;2023-10-19T12:33:38;16.50;99.90
26182;DHT22;13927;51.534;11.866;2023-10-19T12:36:05;16.50;99.90
26182;DHT22;13927;51.534;11.866;2023-10-19T12:38:51;16.40;99.90
26182;DHT22;13927;51.534;11.866;2023-10-19T12:41:19;16.30;99.90
26182;DHT22;13927;51.534;11.866;2023-10-19T12:43:45;16.30;99.90
26182;DHT22;13927;51.534;11.866;2023-10-19T12:46:14;16.20;99.90
26182;DHT22;13927;51.534;11.866;2023-10-19T12:48:41;16.20;99.90
26182;DHT22;13927;51.534;11.866;2023-10-19T12:51:08;16.20;99.90
26182;DHT22;13927;51.534;11.866;2023-10-19T12:53:37;16.20;99.90
26182;DHT22;13927;51.534;11.866;2023-10-19T12:56:05;16.20;99.90
26182;DHT22;13927;51.534;11.866;2023-10-19T12:58:31;16.10;99.90
26182;DHT22;13927;51.534;11.866;2023-10-19T13:00:58;16.00;99.90
26182;DHT22;13927;51.534;11.866;2023-10-19T13:03:24;15.90;99.90
26182;DHT22;13927;51.534;11.866;2023-10-19T13:05:56;15.80;99.90
26182;DHT22;13927;51.534;11.866;2023-10-19T13:08:23;15.70;99.90
26182;DHT22;13927;51.534;11.866;2023-10-19T13:10:53;15.70;99.90
26182;DHT22;13927;51.534;11.866;2023-10-19T13:13:19;15.60;99.90
26182;DHT22;13927;51.534;11.866;2023-10-19T13:15:49;15.60;99.90
26182;DHT22;13927;51.534;11.866;2023-10-19T13:18:15;15.50;99.90
26182;DHT22;13927;51.534;11.866;2023-10-19T13:21:07;15.50;99.90
26182;DHT22;13927;51.534;11.866;2023-10-19T13:23:42;15.50;99.90
26182;DHT22;13927;51.534;11.866;2023-10-19T13:26:10;15.40;99.90
26182;DHT22;13927;51.534;11.866;2023-10-19T13:28:41;15.40;99.90
26182;DHT22;13927;51.534;11.866;2023-10-19T13:31:07;15.30;99.90
26182;DHT22;13927;51.534;11.866;2023-10-19T13:33:39;15.20;99.90
26182;DHT22;13927;51.534;11.866;2023-10-19T13:36:07;15.20;99.90
26182;DHT22;13927;51.534;11.866;2023-10-19T13:38:33;15.20;99.90
26182;DHT22;13927;51.534;11.866;2023-10-19T13:40:59;15.20;99.90
26182;DHT22;13927;51.534;11.866;2023-10-19T13:43:24;15.20;99.90
26182;DHT22;13927;51.534;11.866;2023-10-19T13:45:50;15.20;99.90
26182;DHT22;13927;51.534;11.866;2023-10-19T13:48:18;15.30;99.90
26182;DHT22;13927;51.534;11.866;2023-10-19T13:50:48;15.30;99.90
26182;DHT22;13927;51.534;11.866;2023-10-19T13:53:18;15.40;99.90
26182;DHT22;13927;51.534;11.866;2023-10-19T13:55:45;15.50;99.90
26182;DHT22;13927;51.534;11.866;2023-10-19T13:58:11;15.50;99.90
26182;DHT22;13927;51.534;11.866;2023-10-19T14:00:40;15.50;99.90
26182;DHT22;13927;51.534;11.866;2023-10-19T14:03:07;15.50;99.90
26182;DHT22;13927;51.534;11.866;2023-10-19T14:05:41;15.60;99.90
26182;DHT22;13927;51.534;11.866;2023-10-19T14:08:13;15.60;99.90
26182;DHT22;13927;51.534;11.866;2023-10-19T14:10:39;15.60;99.90
26182;DHT22;13927;51.534;11.866;2023-10-19T14:13:07;15.60;99.90
26182;DHT22;13927;51.534;11.866;2023-10-19T14:15:34;15.60;99.90
26182;DHT22;13927;51.534;11.866;2023-10-19T14:18:00;15.50;99.90
26182;DHT22;13927;51.534;11.866;2023-10-19T14:20:28;15.50;99.90
26182;DHT22;13927;51.534;11.866;2023-10-19T14:22:55;15.50;99.90
26182;DHT22;13927;51.534;11.866;2023-10-19T14:25:21;15.50;99.90
26182;DHT22;13927;51.534;11.866;2023-10-19T14:27:50;15.50;99.90
26182;DHT22;13927;51.534;11.866;2023-10-19T14:30:27;15.50;99.90
26182;DHT22;13927;51.534;11.866;2023-10-19T14:32:56;15.50;99.90
26182;DHT22;13927;51.534;11.866;2023-10-19T14:35:24;15.50;99.90
26182;DHT22;13927;51.534;11.866;2023-10-19T14:37:54;15.50;99.90
26182;DHT22;13927;51.534;11.866;2023-10-19T14:40:23;15.50;99.90
26182;DHT22;13927;51.534;11.866;2023-10-19T14:42:52;15.40;99.90
26182;DHT22;13927;51.534;11.866;2023-10-19T14:45:23;15.30;99.90
26182;DHT22;13927;51.534;11.866;2023-10-19T14:47:55;15.30;99.90
26182;DHT22;13927;51.534;11.866;2023-10-19T14:50:23;15.30;99.90
26182;DHT22;13927;51.534;11.866;2023-10-19T14:52:51;15.20;99.90
26182;DHT22;13927;51.534;11.866;2023-10-19T14:55:18;15.20;99.90
26182;DHT22;13927;51.534;11.866;2023-10-19T14:57:46;15.20;99.90
26182;DHT22;13927;51.534;11.866;2023-10-19T15:00:15;15.10;99.90
26182;DHT22;13927;51.534;11.866;2023-10-19T15:02:52;15.10;99.90
26182;DHT22;13927;51.534;11.866;2023-10-19T15:05:27;15.00;99.90
26182;DHT22;13927;51.534;11.866;2023-10-19T15:07:54;15.00;99.90
26182;DHT22;13927;51.534;11.866;2023-10-19T15:10:27;15.00;99.90
26182;DHT22;13927;51.534;11.866;2023-10-19T15:12:56;15.00;99.90
26182;DHT22;13927;51.534;11.866;2023-10-19T15:15:25;15.00;99.90
26182;DHT22;13927;51.534;11.866;2023-10-19T15:17:52;15.00;99.90
26182;DHT22;13927;51.534;11.866;2023-10-19T15:20:19;14.90;99.90
26182;DHT22;13927;51.534;11.866;2023-10-19T15:22:50;14.90;99.90
26182;DHT22;13927;51.534;11.866;2023-10-19T15:25:16;14.80;99.90
26182;DHT22;13927;51.534;11.866;2023-10-19T15:27:47;14.80;99.90
26182;DHT22;13927;51.534;11.866;2023-10-19T15:30:16;14.60;99.90
26182;DHT22;13927;51.534;11.866;2023-10-19T15:32:43;14.60;99.90
26182;DHT22;13927;51.534;11.866;2023-10-19T15:35:11;14.50;99.90
26182;DHT22;13927;51.534;11.866;2023-10-19T15:37:38;14.40;99.90
26182;DHT22;13927;51.534;11.866;2023-10-19T15:40:04;14.40;99.90
26182;DHT22;13927;51.534;11.866;2023-10-19T15:42:31;14.30;99.90
26182;DHT22;13927;51.534;11.866;2023-10-19T15:44:59;14.20;99.90
26182;DHT22;13927;51.534;11.866;2023-10-19T15:47:25;14.10;99.90
26182;DHT22;13927;51.534;11.866;2023-10-19T15:49:52;14.10;99.90
26182;DHT22;13927;51.534;11.866;2023-10-19T15:52:23;14.00;99.90
26182;DHT22;13927;51.534;11.866;2023-10-19T15:54:51;14.00;99.90